createdAt,value
2022-09-20T00:01:17.799Z,2.25
2022-09-20T00:03:49.216Z,2.63
2022-09-20T00:06:20.776Z,2.90
2022-09-20T00:08:50.952Z,2.10
2022-09-20T00:11:23.241Z,2.50
2022-09-20T00:13:57.897Z,2.30
2022-09-20T00:16:29.101Z,2.15
2022-09-20T00:19:01.157Z,2.10
2022-09-20T00:21:33.470Z,2.33
2022-09-20T00:24:03.337Z,2.85
2022-09-20T00:26:32.944Z,3.38
2022-09-20T00:29:05.598Z,3.50
2022-09-20T00:31:35.797Z,5.18
2022-09-20T00:34:18.063Z,5.20
2022-09-20T00:36:50.751Z,4.00
2022-09-20T00:39:20.575Z,3.95
2022-09-20T00:41:50.298Z,3.67
2022-09-20T00:44:48.154Z,3.08
2022-09-20T00:47:27.448Z,2.60
2022-09-20T00:50:02.631Z,2.78
2022-09-20T00:52:33.012Z,2.47
2022-09-20T00:55:04.726Z,2.90
2022-09-20T00:57:36.351Z,2.30
2022-09-20T01:00:13.709Z,2.53
2022-09-20T01:02:48.731Z,2.85
2022-09-20T01:05:20.349Z,2.50
2022-09-20T01:07:53.293Z,2.75
2022-09-20T01:10:22.965Z,2.70
2022-09-20T01:12:54.463Z,2.22
2022-09-20T01:15:28.721Z,2.70
2022-09-20T01:18:02.823Z,2.40
2022-09-20T01:20:35.013Z,3.00
2022-09-20T01:23:27.842Z,3.15
2022-09-20T01:26:24.248Z,3.00
2022-09-20T01:29:04.368Z,2.17
2022-09-20T01:31:37.930Z,2.70
2022-09-20T01:34:14.022Z,3.03
2022-09-20T01:36:48.247Z,2.97
2022-09-20T01:39:28.446Z,3.22
2022-09-20T01:42:01.569Z,2.70
2022-09-20T01:44:40.289Z,3.30
2022-09-20T01:47:20.679Z,2.83
2022-09-20T01:49:58.985Z,2.42
2022-09-20T01:53:13.009Z,2.70
2022-09-20T01:56:14.887Z,2.90
2022-09-20T01:59:23.637Z,2.47
2022-09-20T02:02:13.009Z,2.38
2022-09-20T02:05:11.574Z,2.28
2022-09-20T02:07:57.986Z,2.78
2022-09-20T02:10:46.585Z,2.55
2022-09-20T02:13:31.090Z,2.47
2022-09-20T02:16:33.469Z,2.85
2022-09-20T02:19:24.161Z,2.55
2022-09-20T02:22:04.617Z,2.70
2022-09-20T02:24:45.983Z,3.22
2022-09-20T02:27:27.074Z,2.78
2022-09-20T02:30:12.916Z,2.50
2022-09-20T02:32:58.573Z,2.75
2022-09-20T02:35:49.630Z,3.03
2022-09-20T02:38:31.895Z,3.00
2022-09-20T02:41:21.757Z,3.08
2022-09-20T02:43:59.194Z,2.70
2022-09-20T02:46:33.576Z,2.50
2022-09-20T02:49:12.287Z,3.28
2022-09-20T02:51:49.545Z,3.17
2022-09-20T02:54:30.864Z,3.55
2022-09-20T02:57:07.329Z,2.88
2022-09-20T02:59:46.894Z,3.50
2022-09-20T03:02:29.760Z,3.13
2022-09-20T03:05:14.587Z,2.97
2022-09-20T03:08:05.799Z,3.17
2022-09-20T03:10:42.216Z,3.45
2022-09-20T03:13:25.764Z,2.90
2022-09-20T03:16:06.057Z,3.30
2022-09-20T03:18:47.890Z,2.97
2022-09-20T03:21:34.153Z,3.00
2022-09-20T03:24:20.056Z,3.20
2022-09-20T03:26:58.340Z,2.65
2022-09-20T03:29:43.648Z,2.90
2022-09-20T03:32:30.542Z,3.35
2022-09-20T03:35:08.731Z,3.13
2022-09-20T03:38:01.959Z,3.00
2022-09-20T03:41:00.191Z,2.70
2022-09-20T03:43:45.414Z,3.53
2022-09-20T03:46:20.754Z,2.58
2022-09-20T03:49:09.389Z,3.00
2022-09-20T03:51:48.169Z,3.25
2022-09-20T03:54:37.545Z,3.78
2022-09-20T03:57:28.734Z,3.10
2022-09-20T04:00:12.183Z,3.47
2022-09-20T04:03:09.225Z,4.25
2022-09-20T04:05:53.793Z,2.67
2022-09-20T04:08:42.202Z,3.55
2022-09-20T04:11:20.975Z,3.50
2022-09-20T04:13:59.930Z,3.25
2022-09-20T04:16:40.588Z,3.78
2022-09-20T04:19:17.723Z,4.05
2022-09-20T04:21:55.954Z,3.33
2022-09-20T04:24:44.624Z,3.75
2022-09-20T04:27:20.453Z,2.88
2022-09-20T04:30:00.836Z,3.47
2022-09-20T04:32:38.281Z,2.90
2022-09-20T04:35:29.923Z,3.10
2022-09-20T04:38:00.289Z,2.90
2022-09-20T04:40:52.288Z,2.33
2022-09-20T04:43:54.104Z,2.50
2022-09-20T04:47:06.058Z,2.45
2022-09-20T04:50:02.602Z,2.50
2022-09-20T04:53:12.421Z,2.17
2022-09-20T04:55:58.988Z,2.10
2022-09-20T04:58:40.676Z,2.00
2022-09-20T05:01:59.323Z,3.38
2022-09-20T05:05:11.551Z,2.40
2022-09-20T05:08:14.346Z,1.92
2022-09-20T05:11:13.298Z,1.90
2022-09-20T05:14:01.104Z,2.47
2022-09-20T05:16:47.931Z,2.40
2022-09-20T05:19:34.070Z,2.22
2022-09-20T05:22:28.122Z,2.42
2022-09-20T05:25:33.806Z,2.40
2022-09-20T05:28:12.993Z,2.50
2022-09-20T05:30:48.516Z,2.85
2022-09-20T05:33:25.223Z,2.25
2022-09-20T05:36:07.508Z,2.60
2022-09-20T05:38:50.806Z,2.85
2022-09-20T05:41:31.956Z,2.33
2022-09-20T05:44:13.641Z,2.33
2022-09-20T05:46:53.128Z,2.80
2022-09-20T05:49:40.745Z,2.28
2022-09-20T05:52:26.944Z,2.70
2022-09-20T05:55:21.558Z,3.15
2022-09-20T05:58:06.217Z,2.38
2022-09-20T06:00:43.958Z,2.65
2022-09-20T06:03:21.660Z,2.60
2022-09-20T06:06:01.732Z,2.50
2022-09-20T06:08:46.406Z,2.42
2022-09-20T06:11:50.685Z,2.55
2022-09-20T06:14:33.441Z,2.58
2022-09-20T06:17:16.378Z,2.50
2022-09-20T06:19:51.933Z,2.75
2022-09-20T06:22:27.809Z,3.30
2022-09-20T06:25:04.410Z,2.70
2022-09-20T06:27:43.114Z,3.00
2022-09-20T06:30:19.695Z,2.95
2022-09-20T06:33:00.604Z,3.35
2022-09-20T06:35:39.176Z,3.08
2022-09-20T06:38:34.662Z,2.90
2022-09-20T06:41:18.423Z,3.10
2022-09-20T06:43:51.075Z,2.78
2022-09-20T06:46:21.036Z,2.90
2022-09-20T06:48:51.423Z,3.22
2022-09-20T06:51:21.253Z,3.00
2022-09-20T06:53:52.145Z,2.63
2022-09-20T06:56:26.783Z,3.00
2022-09-20T06:58:59.293Z,3.17
2022-09-20T07:01:30.472Z,2.67
2022-09-20T07:04:01.397Z,2.70
2022-09-20T07:06:31.800Z,2.80
2022-09-20T07:09:01.591Z,3.10
2022-09-20T07:11:35.089Z,2.83
2022-09-20T07:14:08.076Z,2.60
2022-09-20T07:16:37.921Z,3.15
2022-09-20T07:19:08.328Z,2.70
2022-09-20T07:21:38.060Z,2.58
2022-09-20T07:24:07.778Z,2.50
2022-09-20T07:26:38.936Z,2.60
2022-09-20T07:29:12.338Z,2.80
2022-09-20T07:31:41.962Z,2.50
2022-09-20T07:34:11.676Z,2.17
2022-09-20T07:36:41.270Z,2.30
2022-09-20T07:39:10.881Z,2.53
2022-09-20T07:41:40.546Z,2.63
2022-09-20T07:44:24.988Z,2.33
2022-09-20T07:46:59.460Z,2.20
2022-09-20T07:49:30.521Z,2.55
2022-09-20T07:52:00.871Z,2.22
2022-09-20T07:54:30.660Z,2.15
2022-09-20T07:57:00.254Z,2.05
2022-09-20T07:59:32.852Z,1.90
2022-09-20T08:02:02.516Z,1.95
2022-09-20T08:04:32.397Z,1.95
2022-09-20T08:07:02.070Z,1.88
2022-09-20T08:09:31.848Z,1.77
2022-09-20T08:14:05.414Z,2.35
2022-09-20T08:14:54.689Z,1.70
2022-09-20T08:17:24.817Z,1.85
2022-09-20T08:19:55.610Z,1.55
2022-09-20T08:22:25.215Z,1.90
2022-09-20T08:24:55.191Z,2.00
2022-09-20T08:27:25.513Z,1.63
2022-09-20T08:29:58.106Z,1.63
2022-09-20T08:32:27.855Z,1.70
2022-09-20T08:34:57.464Z,1.60
2022-09-20T08:37:27.394Z,1.90
2022-09-20T08:39:57.789Z,1.73
2022-09-20T08:42:39.067Z,1.80
2022-09-20T08:45:34.134Z,1.60
2022-09-20T08:48:08.997Z,1.50
2022-09-20T08:50:39.796Z,1.60
2022-09-20T08:53:09.515Z,1.75
2022-09-20T08:55:41.739Z,1.58
2022-09-20T08:58:14.258Z,1.42
2022-09-20T09:00:49.210Z,1.60
2022-09-20T09:03:20.470Z,1.58
2022-09-20T09:05:52.861Z,1.92
2022-09-20T09:08:24.957Z,1.50
2022-09-20T09:10:57.305Z,2.88
2022-09-20T09:13:32.969Z,2.00
2022-09-20T09:16:12.191Z,3.05
2022-09-20T09:18:44.465Z,1.95
2022-09-20T09:21:22.055Z,1.80
2022-09-20T09:23:57.940Z,2.55
2022-09-20T09:26:28.668Z,1.70
2022-09-20T09:29:19.043Z,1.85
2022-09-20T09:31:54.581Z,1.88
2022-09-20T09:34:30.698Z,1.75
2022-09-20T09:37:01.978Z,1.70
2022-09-20T09:39:35.584Z,1.70
2022-09-20T09:42:23.026Z,1.33
2022-09-20T09:44:52.615Z,1.73
2022-09-20T09:47:31.351Z,1.58
2022-09-20T09:50:07.423Z,1.80
2022-09-20T09:52:39.751Z,1.92
2022-09-20T09:55:12.008Z,1.52
2022-09-20T09:57:55.853Z,1.90
2022-09-20T10:00:27.391Z,1.30
2022-09-20T10:03:20.423Z,1.73
2022-09-20T10:06:04.747Z,1.30
2022-09-20T10:08:44.220Z,2.00
2022-09-20T10:11:26.511Z,1.70
2022-09-20T10:14:05.611Z,1.50
2022-09-20T10:16:56.299Z,1.40
2022-09-20T10:19:43.343Z,1.50
2022-09-20T10:22:20.157Z,1.33
2022-09-20T10:24:56.062Z,1.60
2022-09-20T10:27:39.942Z,1.17
2022-09-20T10:30:15.331Z,1.90
2022-09-20T10:33:01.740Z,1.45
2022-09-20T10:36:00.755Z,2.08
2022-09-20T10:38:35.597Z,1.70
2022-09-20T10:41:32.531Z,2.78
2022-09-20T10:44:12.575Z,2.15
2022-09-20T10:46:51.979Z,1.95
2022-09-20T10:49:30.907Z,2.47
2022-09-20T10:52:27.000Z,2.10
2022-09-20T10:55:12.915Z,1.90
2022-09-20T10:58:32.057Z,2.00
2022-09-20T11:01:06.355Z,2.25
2022-09-20T11:03:59.075Z,2.13
2022-09-20T11:06:38.788Z,1.90
2022-09-20T11:09:17.196Z,1.80
2022-09-20T11:11:51.148Z,1.63
2022-09-20T11:14:28.254Z,2.25
2022-09-20T11:17:04.942Z,2.40
2022-09-20T11:19:42.998Z,2.10
2022-09-20T11:22:18.927Z,2.08
2022-09-20T11:24:58.033Z,2.15
2022-09-20T11:27:33.141Z,1.85
2022-09-20T11:30:07.316Z,2.15
2022-09-20T11:32:44.096Z,2.13
2022-09-20T11:35:27.506Z,1.88
2022-09-20T11:38:06.543Z,2.05
2022-09-20T11:40:43.309Z,1.70
2022-09-20T11:43:15.869Z,1.83
2022-09-20T11:45:50.167Z,1.63
2022-09-20T11:48:25.203Z,1.77
2022-09-20T11:51:17.765Z,1.55
2022-09-20T11:54:18.873Z,1.88
2022-09-20T11:56:57.813Z,1.52
2022-09-20T11:59:33.115Z,1.85
2022-09-20T12:02:04.315Z,1.50
2022-09-20T12:04:38.267Z,1.67
2022-09-20T12:07:15.640Z,1.73
2022-09-20T12:09:54.679Z,1.50
2022-09-20T12:12:36.133Z,1.58
2022-09-20T12:15:08.765Z,1.58
2022-09-20T12:18:09.570Z,1.60
2022-09-20T12:21:15.349Z,1.75
2022-09-20T12:24:10.468Z,1.33
2022-09-20T12:26:56.337Z,1.20
2022-09-20T12:30:06.435Z,1.40
2022-09-20T12:32:59.099Z,1.30
2022-09-20T12:36:01.566Z,2.15
2022-09-20T12:38:34.752Z,1.63
2022-09-20T12:41:08.359Z,2.53
2022-09-20T12:43:41.581Z,2.30
2022-09-20T12:46:29.733Z,1.65
2022-09-20T12:49:36.239Z,1.45
2022-09-20T12:52:18.572Z,1.20
2022-09-20T12:55:00.937Z,1.55
2022-09-20T12:57:35.789Z,1.50
2022-09-20T13:00:10.501Z,1.58
2022-09-20T13:03:13.249Z,1.30
2022-09-20T13:05:46.072Z,1.30
2022-09-20T13:08:21.588Z,1.58
2022-09-20T13:10:57.287Z,1.77
2022-09-20T13:13:34.349Z,1.42
2022-09-20T13:16:06.103Z,1.80
2022-09-20T13:18:39.936Z,1.10
2022-09-20T13:21:11.390Z,1.42
2022-09-20T13:23:51.088Z,1.35
2022-09-20T13:26:31.491Z,1.50
2022-09-20T13:29:01.985Z,1.42
2022-09-20T13:31:35.073Z,1.90
2022-09-20T13:34:23.727Z,1.58
2022-09-20T13:36:57.541Z,1.30
2022-09-20T13:39:32.228Z,1.17
2022-09-20T13:42:04.074Z,1.15
2022-09-20T13:44:37.474Z,1.10
2022-09-20T13:47:25.232Z,1.20
2022-09-20T13:50:03.003Z,1.63
2022-09-20T13:52:34.428Z,1.10
2022-09-20T13:55:24.714Z,1.20
2022-09-20T13:57:56.232Z,1.40
2022-09-20T14:00:26.617Z,1.17
2022-09-20T14:02:57.535Z,1.13
2022-09-20T14:05:33.616Z,1.70
2022-09-20T14:08:04.156Z,1.27
2022-09-20T14:10:37.135Z,1.02
2022-09-20T14:13:09.673Z,1.00
2022-09-20T14:15:43.687Z,1.20
2022-09-20T14:18:20.106Z,1.02
2022-09-20T14:20:55.438Z,1.00
2022-09-20T14:23:27.411Z,0.80
2022-09-20T14:26:11.683Z,0.95
2022-09-20T14:28:41.566Z,1.10
2022-09-20T14:31:16.339Z,1.15
2022-09-20T14:33:54.788Z,1.20
2022-09-20T14:36:30.672Z,1.25
2022-09-20T14:39:05.048Z,1.10
2022-09-20T14:41:37.866Z,1.38
2022-09-20T14:44:10.441Z,1.02
2022-09-20T14:46:41.108Z,1.30
2022-09-20T14:49:34.851Z,1.23
2022-09-20T14:52:34.769Z,0.98
2022-09-20T14:55:18.920Z,1.20
2022-09-20T14:57:50.284Z,1.15
2022-09-20T15:00:21.516Z,1.13
2022-09-20T15:02:52.141Z,1.38
2022-09-20T15:05:26.023Z,1.95
2022-09-20T15:08:00.523Z,1.00
2022-09-20T15:10:30.525Z,1.27
2022-09-20T15:13:02.369Z,0.98
2022-09-20T15:15:31.975Z,1.17
2022-09-20T15:18:03.222Z,1.25
2022-09-20T15:20:32.853Z,1.23
2022-09-20T15:23:05.131Z,1.35
2022-09-20T15:25:34.832Z,1.20
2022-09-20T15:28:04.730Z,1.55
2022-09-20T15:30:34.475Z,1.10
2022-09-20T15:33:04.170Z,1.23
2022-09-20T15:35:33.803Z,1.35
2022-09-20T15:38:09.015Z,1.33
2022-09-20T15:40:39.028Z,3.47
2022-09-20T15:43:09.607Z,1.40
2022-09-20T15:45:39.737Z,1.70
2022-09-20T15:48:10.481Z,1.42
2022-09-20T15:50:43.071Z,1.38
2022-09-20T15:53:15.552Z,1.10
2022-09-20T15:55:46.083Z,1.40
2022-09-20T15:58:16.195Z,1.48
2022-09-20T16:00:46.007Z,1.23
2022-09-20T16:03:15.839Z,1.10
2022-09-20T16:05:46.073Z,1.13
2022-09-20T16:08:18.742Z,1.60
2022-09-20T16:10:58.899Z,1.80
2022-09-20T16:13:29.226Z,1.92
2022-09-20T16:16:00.210Z,1.40
2022-09-20T16:18:42.691Z,1.25
2022-09-20T16:21:13.647Z,1.05
2022-09-20T16:23:51.422Z,1.67
2022-09-20T16:26:23.580Z,1.50
2022-09-20T16:28:55.720Z,1.33
2022-09-20T16:31:36.941Z,1.60
2022-09-20T16:34:08.075Z,1.10
2022-09-20T16:36:38.631Z,1.45
2022-09-20T16:39:11.080Z,1.30
2022-09-20T16:41:41.203Z,1.60
2022-09-20T16:44:11.645Z,1.40
2022-09-20T16:46:41.637Z,1.40
2022-09-20T16:49:13.510Z,1.25
2022-09-20T16:51:45.051Z,1.50
2022-09-20T16:54:20.544Z,1.60
2022-09-20T16:56:52.882Z,1.20
2022-09-20T16:59:24.227Z,1.90
2022-09-20T17:01:54.240Z,1.33
2022-09-20T17:04:23.980Z,1.40
2022-09-20T17:06:54.086Z,1.45
2022-09-20T17:09:27.754Z,1.80
2022-09-20T17:14:26.901Z,2.55
2022-09-20T17:16:56.839Z,1.48
2022-09-20T17:19:26.634Z,1.60
2022-09-20T17:21:56.395Z,1.35
2022-09-20T17:24:30.303Z,1.90
2022-09-20T17:27:01.352Z,1.52
2022-09-20T17:29:30.942Z,1.45
2022-09-20T17:32:00.952Z,2.20
2022-09-20T17:34:31.802Z,2.10
2022-09-20T17:37:01.859Z,1.80
2022-09-20T17:39:34.120Z,1.77
2022-09-20T17:42:04.181Z,1.65
2022-09-20T17:44:36.740Z,2.35
2022-09-20T17:47:07.165Z,2.40
2022-09-20T17:49:38.455Z,2.20
2022-09-20T17:52:08.551Z,1.60
2022-09-20T17:54:40.712Z,1.90
2022-09-20T17:57:10.525Z,2.08
2022-09-20T17:59:40.130Z,2.28
2022-09-20T18:02:09.698Z,1.70
2022-09-20T18:04:39.277Z,1.70
2022-09-20T18:07:08.781Z,2.10
2022-09-20T18:09:41.093Z,1.45
2022-09-20T18:12:13.946Z,1.60
2022-09-20T18:14:47.275Z,1.85
2022-09-20T18:17:16.946Z,1.83
2022-09-20T18:19:46.522Z,2.10
2022-09-20T18:22:16.210Z,2.20
2022-09-20T18:24:48.403Z,2.45
2022-09-20T18:27:18.322Z,2.30
2022-09-20T18:29:48.595Z,2.78
2022-09-20T18:32:18.898Z,2.50
2022-09-20T18:34:51.277Z,2.63
2022-09-20T18:37:20.920Z,2.58
2022-09-20T18:39:53.534Z,2.78
2022-09-20T18:42:23.242Z,2.05
2022-09-20T18:44:53.436Z,2.20
2022-09-20T18:47:23.068Z,1.98
2022-09-20T18:49:52.958Z,3.35
2022-09-20T18:52:24.204Z,3.13
2022-09-20T18:54:58.393Z,4.13
2022-09-20T18:57:28.686Z,3.00
2022-09-20T19:00:03.622Z,3.00
2022-09-20T19:02:58.925Z,2.78
2022-09-20T19:05:36.831Z,2.60
2022-09-20T19:08:20.064Z,2.92
2022-09-20T19:10:56.591Z,2.42
2022-09-20T19:13:36.616Z,2.83
2022-09-20T19:16:20.130Z,2.75
2022-09-20T19:19:01.390Z,2.50
2022-09-20T19:21:37.760Z,2.20
2022-09-20T19:24:21.815Z,3.15
2022-09-20T19:29:26.959Z,2.70
2022-09-20T19:31:59.033Z,2.88
2022-09-20T19:34:31.776Z,4.50
2022-09-20T19:37:10.481Z,5.03
2022-09-20T19:39:51.756Z,6.13
2022-09-20T19:42:32.041Z,5.70
2022-09-20T19:45:13.803Z,5.28
2022-09-20T19:47:52.505Z,6.82
2022-09-20T19:50:32.612Z,6.72
2022-09-20T19:53:04.279Z,6.10
2022-09-20T19:55:35.136Z,5.88
2022-09-20T19:58:09.143Z,5.40
2022-09-20T20:00:40.092Z,6.57
2022-09-20T20:03:10.753Z,6.32
2022-09-20T20:05:41.401Z,6.53
2022-09-20T20:08:19.718Z,4.47
2022-09-20T20:11:00.364Z,4.47
2022-09-20T20:13:53.646Z,4.05
2022-09-20T20:16:29.331Z,3.33
2022-09-20T20:19:16.786Z,3.83
2022-09-20T20:21:55.380Z,4.82
2022-09-20T20:24:33.209Z,4.95
2022-09-20T20:27:02.910Z,4.88
2022-09-20T20:29:35.401Z,5.50
2022-09-20T20:32:05.255Z,5.25
2022-09-20T20:34:37.027Z,4.80
2022-09-20T20:37:06.635Z,4.75
2022-09-20T20:39:36.696Z,4.78
2022-09-20T20:42:10.319Z,4.68
2022-09-20T20:44:42.746Z,4.47
2022-09-20T20:47:12.327Z,4.85
2022-09-20T20:49:42.390Z,4.57
2022-09-20T20:52:11.929Z,4.75
2022-09-20T20:54:41.609Z,5.38
2022-09-20T20:57:11.357Z,4.80
2022-09-20T20:59:43.517Z,5.15
2022-09-20T21:02:13.211Z,6.53
2022-09-20T21:04:42.945Z,4.95
2022-09-20T21:07:12.475Z,5.20
2022-09-20T21:09:42.205Z,4.82
2022-09-20T21:12:11.916Z,4.85
2022-09-20T21:14:44.880Z,4.40
2022-09-20T21:17:14.999Z,4.63
2022-09-20T21:19:44.773Z,4.70
2022-09-20T21:22:14.580Z,4.47
2022-09-20T21:24:44.194Z,4.03
2022-09-20T21:27:13.744Z,4.95
2022-09-20T21:29:45.847Z,3.38
2022-09-20T21:32:15.577Z,4.00
2022-09-20T21:34:45.131Z,3.90
2022-09-20T21:37:14.789Z,4.15
2022-09-20T21:39:45.681Z,3.50
2022-09-20T21:42:17.194Z,3.22
2022-09-20T21:44:49.833Z,3.20
2022-09-20T21:47:20.911Z,3.80
2022-09-20T21:49:50.692Z,3.35
2022-09-20T21:52:20.474Z,3.35
2022-09-20T21:54:50.609Z,4.10
2022-09-20T21:57:20.414Z,3.42
2022-09-20T21:59:53.015Z,3.25
2022-09-20T22:02:23.410Z,3.08
2022-09-20T22:04:53.601Z,3.83
2022-09-20T22:07:23.469Z,3.28
2022-09-20T22:09:53.297Z,3.00
2022-09-20T22:12:24.188Z,3.47
2022-09-20T22:14:56.684Z,3.35
2022-09-20T22:17:27.138Z,3.70
2022-09-20T22:19:57.359Z,3.67
2022-09-20T22:22:27.695Z,3.20
2022-09-20T22:24:57.586Z,3.50
2022-09-20T22:27:27.686Z,3.15
2022-09-20T22:30:04.630Z,3.17
2022-09-20T22:32:35.427Z,3.45
2022-09-20T22:35:05.517Z,3.33
2022-09-20T22:37:35.505Z,3.13
2022-09-20T22:40:06.559Z,3.90
2022-09-20T22:42:36.702Z,3.90
2022-09-20T22:45:10.453Z,3.10
2022-09-20T22:50:11.047Z,3.28
2022-09-20T22:52:41.014Z,3.47
2022-09-20T22:55:12.054Z,3.38
2022-09-20T22:57:42.019Z,4.35
2022-09-20T23:00:16.526Z,3.55
2022-09-20T23:02:46.741Z,4.07
2022-09-20T23:05:18.323Z,4.28
2022-09-20T23:07:52.424Z,4.47
2022-09-20T23:10:22.544Z,5.47
2022-09-20T23:12:56.176Z,4.20
2022-09-20T23:15:28.987Z,3.97
2022-09-20T23:17:59.081Z,4.13
2022-09-20T23:20:29.409Z,3.65
2022-09-20T23:22:59.340Z,3.88
2022-09-20T23:25:29.412Z,4.05
2022-09-20T23:27:59.622Z,3.75
2022-09-20T23:30:32.269Z,4.00
2022-09-20T23:33:02.267Z,4.05
2022-09-20T23:35:32.269Z,3.80
2022-09-20T23:38:02.412Z,4.03
2022-09-20T23:40:32.398Z,4.43
2022-09-20T23:43:02.474Z,4.30
2022-09-20T23:45:35.152Z,3.50
2022-09-20T23:48:05.834Z,4.60
2022-09-20T23:50:35.867Z,4.03
2022-09-20T23:53:05.748Z,3.85
2022-09-20T23:55:35.705Z,3.90
2022-09-20T23:58:05.787Z,4.05
